sensor_id;sensor_type;location;lat;lon;timestamp;P1;durP1;ratioP1;P2;durP2;ratioP2
71484;SDS011;59300;52.074;4.758;2022-11-13T00:01:48;75.35;;;36.58;;
71484;SDS011;59300;52.074;4.758;2022-11-13T00:05:09;62.45;;;32.25;;
71484;SDS011;59300;52.074;4.758;2022-11-13T00:08:29;54.97;;;30.92;;
71484;SDS011;59300;52.074;4.758;2022-11-13T00:11:50;60.22;;;29.90;;
71484;SDS011;59300;52.074;4.758;2022-11-13T00:15:09;48.90;;;26.92;;
71484;SDS011;59300;52.074;4.758;2022-11-13T00:18:30;60.25;;;29.90;;
71484;SDS011;59300;52.074;4.758;2022-11-13T00:21:52;52.40;;;27.75;;
71484;SDS011;59300;52.074;4.758;2022-11-13T00:25:12;58.25;;;29.05;;
71484;SDS011;59300;52.074;4.758;2022-11-13T00:28:33;48.20;;;27.08;;
71484;SDS011;59300;52.074;4.758;2022-11-13T00:31:53;43.65;;;24.42;;
71484;SDS011;59300;52.074;4.758;2022-11-13T00:35:13;40.38;;;23.73;;
71484;SDS011;59300;52.074;4.758;2022-11-13T00:38:33;41.60;;;23.50;;
71484;SDS011;59300;52.074;4.758;2022-11-13T00:41:53;47.28;;;25.17;;
71484;SDS011;59300;52.074;4.758;2022-11-13T00:45:13;39.25;;;23.75;;
71484;SDS011;59300;52.074;4.758;2022-11-13T00:48:34;42.47;;;24.13;;
71484;SDS011;59300;52.074;4.758;2022-11-13T00:51:54;42.15;;;24.42;;
71484;SDS011;59300;52.074;4.758;2022-11-13T00:55:14;39.90;;;23.35;;
71484;SDS011;59300;52.074;4.758;2022-11-13T00:58:34;40.63;;;23.77;;
71484;SDS011;59300;52.074;4.758;2022-11-13T01:01:55;39.45;;;22.38;;
71484;SDS011;59300;52.074;4.758;2022-11-13T01:05:15;40.22;;;23.50;;
71484;SDS011;59300;52.074;4.758;2022-11-13T01:08:35;45.15;;;24.33;;
71484;SDS011;59300;52.074;4.758;2022-11-13T01:11:55;49.13;;;23.35;;
71484;SDS011;59300;52.074;4.758;2022-11-13T01:15:15;42.40;;;23.38;;
71484;SDS011;59300;52.074;4.758;2022-11-13T01:18:35;43.25;;;22.60;;
71484;SDS011;59300;52.074;4.758;2022-11-13T01:21:55;48.17;;;24.55;;
71484;SDS011;59300;52.074;4.758;2022-11-13T01:25:16;43.97;;;23.42;;
71484;SDS011;59300;52.074;4.758;2022-11-13T01:28:37;44.25;;;23.65;;
71484;SDS011;59300;52.074;4.758;2022-11-13T01:31:58;38.05;;;21.55;;
71484;SDS011;59300;52.074;4.758;2022-11-13T01:35:18;42.83;;;23.17;;
71484;SDS011;59300;52.074;4.758;2022-11-13T01:38:38;43.20;;;22.65;;
71484;SDS011;59300;52.074;4.758;2022-11-13T01:41:59;46.88;;;24.02;;
71484;SDS011;59300;52.074;4.758;2022-11-13T01:49:31;43.30;;;23.10;;
71484;SDS011;59300;52.074;4.758;2022-11-13T01:52:54;48.58;;;24.25;;
71484;SDS011;59300;52.074;4.758;2022-11-13T01:56:14;47.85;;;24.70;;
71484;SDS011;59300;52.074;4.758;2022-11-13T01:59:36;47.40;;;24.33;;
71484;SDS011;59300;52.074;4.758;2022-11-13T02:02:58;45.00;;;23.02;;
71484;SDS011;59300;52.074;4.758;2022-11-13T02:06:19;42.85;;;22.42;;
71484;SDS011;59300;52.074;4.758;2022-11-13T02:09:40;51.00;;;24.42;;
71484;SDS011;59300;52.074;4.758;2022-11-13T02:13:02;42.50;;;23.45;;
71484;SDS011;59300;52.074;4.758;2022-11-13T02:16:22;45.03;;;22.30;;
71484;SDS011;59300;52.074;4.758;2022-11-13T02:19:44;46.28;;;22.33;;
71484;SDS011;59300;52.074;4.758;2022-11-13T02:23:11;44.85;;;22.42;;
71484;SDS011;59300;52.074;4.758;2022-11-13T02:26:39;49.50;;;22.73;;
71484;SDS011;59300;52.074;4.758;2022-11-13T02:30:10;49.83;;;22.80;;
71484;SDS011;59300;52.074;4.758;2022-11-13T02:33:35;46.65;;;23.80;;
71484;SDS011;59300;52.074;4.758;2022-11-13T02:36:55;49.78;;;24.65;;
71484;SDS011;59300;52.074;4.758;2022-11-13T02:40:16;51.10;;;23.85;;
71484;SDS011;59300;52.074;4.758;2022-11-13T02:43:37;48.08;;;22.88;;
71484;SDS011;59300;52.074;4.758;2022-11-13T02:46:57;44.13;;;22.08;;
71484;SDS011;59300;52.074;4.758;2022-11-13T02:50:17;45.33;;;22.42;;
71484;SDS011;59300;52.074;4.758;2022-11-13T02:53:37;48.72;;;22.33;;
71484;SDS011;59300;52.074;4.758;2022-11-13T02:56:57;47.70;;;23.17;;
71484;SDS011;59300;52.074;4.758;2022-11-13T03:00:17;89.88;;;33.85;;
71484;SDS011;59300;52.074;4.758;2022-11-13T03:03:37;63.35;;;29.25;;
71484;SDS011;59300;52.074;4.758;2022-11-13T03:07:16;54.90;;;26.20;;
71484;SDS011;59300;52.074;4.758;2022-11-13T03:10:36;60.80;;;28.95;;
71484;SDS011;59300;52.074;4.758;2022-11-13T03:13:56;61.60;;;28.73;;
71484;SDS011;59300;52.074;4.758;2022-11-13T03:17:16;57.88;;;29.27;;
71484;SDS011;59300;52.074;4.758;2022-11-13T03:20:38;66.55;;;28.50;;
71484;SDS011;59300;52.074;4.758;2022-11-13T03:24:00;65.25;;;28.70;;
71484;SDS011;59300;52.074;4.758;2022-11-13T03:27:20;60.22;;;28.23;;
71484;SDS011;59300;52.074;4.758;2022-11-13T03:30:40;62.42;;;29.15;;
71484;SDS011;59300;52.074;4.758;2022-11-13T03:34:00;63.05;;;28.38;;
71484;SDS011;59300;52.074;4.758;2022-11-13T03:37:20;66.32;;;28.27;;
71484;SDS011;59300;52.074;4.758;2022-11-13T03:40:40;63.50;;;28.42;;
71484;SDS011;59300;52.074;4.758;2022-11-13T03:44:01;53.55;;;25.60;;
71484;SDS011;59300;52.074;4.758;2022-11-13T03:47:21;59.67;;;26.27;;
71484;SDS011;59300;52.074;4.758;2022-11-13T03:50:43;62.65;;;26.88;;
71484;SDS011;59300;52.074;4.758;2022-11-13T03:54:05;57.35;;;27.75;;
71484;SDS011;59300;52.074;4.758;2022-11-13T03:57:25;55.80;;;25.98;;
71484;SDS011;59300;52.074;4.758;2022-11-13T04:00:47;55.78;;;25.63;;
71484;SDS011;59300;52.074;4.758;2022-11-13T04:04:09;56.90;;;26.30;;
71484;SDS011;59300;52.074;4.758;2022-11-13T04:07:29;48.10;;;23.85;;
71484;SDS011;59300;52.074;4.758;2022-11-13T04:10:49;45.17;;;22.85;;
71484;SDS011;59300;52.074;4.758;2022-11-13T04:14:09;40.63;;;21.10;;
71484;SDS011;59300;52.074;4.758;2022-11-13T04:17:30;45.50;;;23.15;;
71484;SDS011;59300;52.074;4.758;2022-11-13T04:20:50;45.80;;;23.33;;
71484;SDS011;59300;52.074;4.758;2022-11-13T04:24:10;41.08;;;22.40;;
71484;SDS011;59300;52.074;4.758;2022-11-13T04:27:30;41.88;;;23.08;;
71484;SDS011;59300;52.074;4.758;2022-11-13T04:30:54;45.40;;;22.95;;
71484;SDS011;59300;52.074;4.758;2022-11-13T04:34:14;42.28;;;22.08;;
71484;SDS011;59300;52.074;4.758;2022-11-13T04:37:34;46.05;;;22.98;;
71484;SDS011;59300;52.074;4.758;2022-11-13T04:40:54;58.13;;;25.55;;
71484;SDS011;59300;52.074;4.758;2022-11-13T04:44:15;58.13;;;27.58;;
71484;SDS011;59300;52.074;4.758;2022-11-13T04:47:34;61.05;;;28.80;;
71484;SDS011;59300;52.074;4.758;2022-11-13T04:50:55;60.67;;;28.45;;
71484;SDS011;59300;52.074;4.758;2022-11-13T04:54:15;63.90;;;28.50;;
71484;SDS011;59300;52.074;4.758;2022-11-13T04:57:35;61.60;;;29.23;;
71484;SDS011;59300;52.074;4.758;2022-11-13T05:00:55;66.97;;;28.63;;
71484;SDS011;59300;52.074;4.758;2022-11-13T05:04:16;63.95;;;27.65;;
71484;SDS011;59300;52.074;4.758;2022-11-13T05:07:36;54.22;;;26.17;;
71484;SDS011;59300;52.074;4.758;2022-11-13T05:10:56;54.38;;;25.85;;
71484;SDS011;59300;52.074;4.758;2022-11-13T05:14:16;54.10;;;25.13;;
71484;SDS011;59300;52.074;4.758;2022-11-13T05:17:36;59.05;;;26.42;;
71484;SDS011;59300;52.074;4.758;2022-11-13T05:20:56;53.10;;;26.42;;
71484;SDS011;59300;52.074;4.758;2022-11-13T05:24:17;57.25;;;24.25;;
71484;SDS011;59300;52.074;4.758;2022-11-13T05:27:36;47.35;;;23.33;;
71484;SDS011;59300;52.074;4.758;2022-11-13T05:31:03;58.08;;;25.50;;
71484;SDS011;59300;52.074;4.758;2022-11-13T05:34:25;49.38;;;25.58;;
71484;SDS011;59300;52.074;4.758;2022-11-13T05:37:45;58.15;;;25.67;;
71484;SDS011;59300;52.074;4.758;2022-11-13T05:41:09;54.55;;;24.70;;
71484;SDS011;59300;52.074;4.758;2022-11-13T05:44:34;53.75;;;24.17;;
71484;SDS011;59300;52.074;4.758;2022-11-13T05:47:55;48.40;;;24.70;;
71484;SDS011;59300;52.074;4.758;2022-11-13T05:51:17;51.20;;;25.13;;
71484;SDS011;59300;52.074;4.758;2022-11-13T05:54:38;54.10;;;24.73;;
71484;SDS011;59300;52.074;4.758;2022-11-13T05:57:58;53.70;;;26.48;;
71484;SDS011;59300;52.074;4.758;2022-11-13T06:01:20;55.80;;;26.23;;
71484;SDS011;59300;52.074;4.758;2022-11-13T06:04:43;66.20;;;27.92;;
71484;SDS011;59300;52.074;4.758;2022-11-13T06:08:03;59.60;;;28.15;;
71484;SDS011;59300;52.074;4.758;2022-11-13T06:11:24;63.30;;;29.60;;
71484;SDS011;59300;52.074;4.758;2022-11-13T06:14:45;72.57;;;32.17;;
71484;SDS011;59300;52.074;4.758;2022-11-13T06:18:05;68.35;;;30.35;;
71484;SDS011;59300;52.074;4.758;2022-11-13T06:21:26;57.35;;;27.83;;
71484;SDS011;59300;52.074;4.758;2022-11-13T06:24:47;65.05;;;28.13;;
71484;SDS011;59300;52.074;4.758;2022-11-13T06:28:07;62.15;;;26.80;;
71484;SDS011;59300;52.074;4.758;2022-11-13T06:31:29;61.70;;;28.88;;
71484;SDS011;59300;52.074;4.758;2022-11-13T06:34:51;68.22;;;30.50;;
71484;SDS011;59300;52.074;4.758;2022-11-13T06:38:11;64.45;;;28.70;;
71484;SDS011;59300;52.074;4.758;2022-11-13T06:41:31;58.10;;;27.15;;
71484;SDS011;59300;52.074;4.758;2022-11-13T06:44:51;55.75;;;26.65;;
71484;SDS011;59300;52.074;4.758;2022-11-13T06:48:11;55.70;;;26.23;;
71484;SDS011;59300;52.074;4.758;2022-11-13T06:51:31;49.00;;;25.88;;
71484;SDS011;59300;52.074;4.758;2022-11-13T06:54:52;56.15;;;26.40;;
71484;SDS011;59300;52.074;4.758;2022-11-13T06:58:12;49.67;;;24.75;;
71484;SDS011;59300;52.074;4.758;2022-11-13T07:01:33;56.47;;;26.15;;
71484;SDS011;59300;52.074;4.758;2022-11-13T07:04:52;53.60;;;26.17;;
71484;SDS011;59300;52.074;4.758;2022-11-13T07:08:13;61.17;;;26.55;;
71484;SDS011;59300;52.074;4.758;2022-11-13T07:11:33;54.22;;;26.08;;
71484;SDS011;59300;52.074;4.758;2022-11-13T07:14:53;55.35;;;26.75;;
71484;SDS011;59300;52.074;4.758;2022-11-13T07:18:13;59.70;;;28.42;;
71484;SDS011;59300;52.074;4.758;2022-11-13T07:21:33;56.63;;;29.25;;
71484;SDS011;59300;52.074;4.758;2022-11-13T07:24:53;57.15;;;28.73;;
71484;SDS011;59300;52.074;4.758;2022-11-13T07:28:13;56.20;;;26.10;;
71484;SDS011;59300;52.074;4.758;2022-11-13T07:31:33;50.58;;;25.48;;
71484;SDS011;59300;52.074;4.758;2022-11-13T07:34:53;53.00;;;25.25;;
71484;SDS011;59300;52.074;4.758;2022-11-13T07:38:14;49.47;;;25.75;;
71484;SDS011;59300;52.074;4.758;2022-11-13T07:41:34;47.45;;;24.92;;
71484;SDS011;59300;52.074;4.758;2022-11-13T07:44:54;49.67;;;25.90;;
71484;SDS011;59300;52.074;4.758;2022-11-13T07:48:14;48.10;;;25.83;;
71484;SDS011;59300;52.074;4.758;2022-11-13T07:51:34;44.38;;;25.30;;
71484;SDS011;59300;52.074;4.758;2022-11-13T07:54:55;46.08;;;24.13;;
71484;SDS011;59300;52.074;4.758;2022-11-13T07:58:15;36.03;;;21.65;;
71484;SDS011;59300;52.074;4.758;2022-11-13T08:01:36;29.00;;;18.65;;
71484;SDS011;59300;52.074;4.758;2022-11-13T08:04:56;26.02;;;15.82;;
71484;SDS011;59300;52.074;4.758;2022-11-13T08:08:16;22.02;;;15.15;;
71484;SDS011;59300;52.074;4.758;2022-11-13T08:11:36;21.92;;;15.57;;
71484;SDS011;59300;52.074;4.758;2022-11-13T08:14:56;21.30;;;13.50;;
71484;SDS011;59300;52.074;4.758;2022-11-13T08:18:16;18.67;;;12.65;;
71484;SDS011;59300;52.074;4.758;2022-11-13T08:21:36;17.58;;;12.43;;
71484;SDS011;59300;52.074;4.758;2022-11-13T08:24:56;16.90;;;11.52;;
71484;SDS011;59300;52.074;4.758;2022-11-13T08:28:16;17.60;;;11.68;;
71484;SDS011;59300;52.074;4.758;2022-11-13T08:31:36;16.70;;;11.07;;
71484;SDS011;59300;52.074;4.758;2022-11-13T08:34:56;16.40;;;10.93;;
71484;SDS011;59300;52.074;4.758;2022-11-13T08:38:16;16.02;;;11.32;;
71484;SDS011;59300;52.074;4.758;2022-11-13T08:41:36;17.17;;;11.90;;
71484;SDS011;59300;52.074;4.758;2022-11-13T08:44:57;14.10;;;10.73;;
71484;SDS011;59300;52.074;4.758;2022-11-13T08:48:17;14.45;;;10.82;;
71484;SDS011;59300;52.074;4.758;2022-11-13T08:51:37;13.55;;;10.20;;
71484;SDS011;59300;52.074;4.758;2022-11-13T08:54:57;14.35;;;10.13;;
71484;SDS011;59300;52.074;4.758;2022-11-13T08:58:17;16.55;;;11.10;;
71484;SDS011;59300;52.074;4.758;2022-11-13T09:01:37;15.55;;;9.98;;
71484;SDS011;59300;52.074;4.758;2022-11-13T09:04:57;14.82;;;10.65;;
71484;SDS011;59300;52.074;4.758;2022-11-13T09:08:17;15.18;;;10.43;;
71484;SDS011;59300;52.074;4.758;2022-11-13T09:11:38;16.50;;;10.82;;
71484;SDS011;59300;52.074;4.758;2022-11-13T09:14:58;14.57;;;9.85;;
71484;SDS011;59300;52.074;4.758;2022-11-13T09:18:18;15.25;;;9.85;;
71484;SDS011;59300;52.074;4.758;2022-11-13T09:21:38;13.43;;;9.70;;
71484;SDS011;59300;52.074;4.758;2022-11-13T09:24:58;17.05;;;10.32;;
71484;SDS011;59300;52.074;4.758;2022-11-13T09:28:19;14.45;;;10.60;;
71484;SDS011;59300;52.074;4.758;2022-11-13T09:31:38;16.35;;;10.73;;
71484;SDS011;59300;52.074;4.758;2022-11-13T09:34:58;12.82;;;10.30;;
71484;SDS011;59300;52.074;4.758;2022-11-13T09:38:18;11.55;;;9.23;;
71484;SDS011;59300;52.074;4.758;2022-11-13T09:41:39;13.63;;;9.63;;
71484;SDS011;59300;52.074;4.758;2022-11-13T09:45:05;15.57;;;9.60;;
71484;SDS011;59300;52.074;4.758;2022-11-13T09:48:33;15.50;;;10.07;;
71484;SDS011;59300;52.074;4.758;2022-11-13T09:51:57;13.07;;;9.75;;
71484;SDS011;59300;52.074;4.758;2022-11-13T09:55:27;11.38;;;9.07;;
71484;SDS011;59300;52.074;4.758;2022-11-13T09:59:06;13.60;;;9.52;;
71484;SDS011;59300;52.074;4.758;2022-11-13T10:02:57;11.57;;;8.70;;
71484;SDS011;59300;52.074;4.758;2022-11-13T10:06:51;14.00;;;9.83;;
71484;SDS011;59300;52.074;4.758;2022-11-13T10:10:30;11.90;;;8.60;;
71484;SDS011;59300;52.074;4.758;2022-11-13T10:14:17;11.27;;;7.95;;
71484;SDS011;59300;52.074;4.758;2022-11-13T10:17:43;10.23;;;7.80;;
71484;SDS011;59300;52.074;4.758;2022-11-13T10:24:36;10.80;;;8.15;;
71484;SDS011;59300;52.074;4.758;2022-11-13T10:27:59;11.63;;;8.45;;
71484;SDS011;59300;52.074;4.758;2022-11-13T10:31:41;12.43;;;7.97;;
71484;SDS011;59300;52.074;4.758;2022-11-13T10:42:17;11.43;;;8.23;;
71484;SDS011;59300;52.074;4.758;2022-11-13T10:45:58;11.18;;;7.40;;
71484;SDS011;59300;52.074;4.758;2022-11-13T10:49:21;12.27;;;8.27;;
71484;SDS011;59300;52.074;4.758;2022-11-13T10:52:46;11.73;;;7.90;;
71484;SDS011;59300;52.074;4.758;2022-11-13T10:56:21;10.15;;;7.07;;
71484;SDS011;59300;52.074;4.758;2022-11-13T10:59:46;15.15;;;7.68;;
71484;SDS011;59300;52.074;4.758;2022-11-13T11:03:07;10.25;;;7.97;;
71484;SDS011;59300;52.074;4.758;2022-11-13T11:06:38;9.05;;;7.53;;
71484;SDS011;59300;52.074;4.758;2022-11-13T11:13:39;10.10;;;7.70;;
71484;SDS011;59300;52.074;4.758;2022-11-13T11:16:59;10.85;;;7.72;;
71484;SDS011;59300;52.074;4.758;2022-11-13T11:24:08;10.68;;;7.72;;
71484;SDS011;59300;52.074;4.758;2022-11-13T11:27:35;9.73;;;7.50;;
71484;SDS011;59300;52.074;4.758;2022-11-13T11:31:44;8.95;;;7.13;;
71484;SDS011;59300;52.074;4.758;2022-11-13T11:34:55;8.27;;;6.80;;
71484;SDS011;59300;52.074;4.758;2022-11-13T11:38:24;8.80;;;6.97;;
71484;SDS011;59300;52.074;4.758;2022-11-13T11:41:56;8.50;;;6.57;;
71484;SDS011;59300;52.074;4.758;2022-11-13T11:45:26;10.05;;;7.10;;
71484;SDS011;59300;52.074;4.758;2022-11-13T11:48:52;12.65;;;6.82;;
71484;SDS011;59300;52.074;4.758;2022-11-13T12:03:30;8.52;;;6.78;;
71484;SDS011;59300;52.074;4.758;2022-11-13T12:10:45;10.20;;;6.93;;
71484;SDS011;59300;52.074;4.758;2022-11-13T12:18:03;10.73;;;6.93;;
71484;SDS011;59300;52.074;4.758;2022-11-13T12:21:42;11.48;;;7.68;;
71484;SDS011;59300;52.074;4.758;2022-11-13T12:25:16;9.15;;;7.38;;
71484;SDS011;59300;52.074;4.758;2022-11-13T12:28:50;10.02;;;6.70;;
71484;SDS011;59300;52.074;4.758;2022-11-13T12:36:00;13.77;;;8.20;;
71484;SDS011;59300;52.074;4.758;2022-11-13T12:43:05;10.27;;;8.02;;
71484;SDS011;59300;52.074;4.758;2022-11-13T12:46:40;13.73;;;8.40;;
71484;SDS011;59300;52.074;4.758;2022-11-13T12:50:05;9.63;;;7.65;;
71484;SDS011;59300;52.074;4.758;2022-11-13T13:00:33;8.50;;;6.70;;
71484;SDS011;59300;52.074;4.758;2022-11-13T13:11:09;7.68;;;6.32;;
71484;SDS011;59300;52.074;4.758;2022-11-13T13:18:28;9.93;;;6.00;;
71484;SDS011;59300;52.074;4.758;2022-11-13T13:21:50;7.75;;;5.70;;
71484;SDS011;59300;52.074;4.758;2022-11-13T13:25:30;11.18;;;6.97;;
71484;SDS011;59300;52.074;4.758;2022-11-13T13:28:53;7.95;;;7.00;;
71484;SDS011;59300;52.074;4.758;2022-11-13T13:32:19;9.55;;;7.03;;
71484;SDS011;59300;52.074;4.758;2022-11-13T13:36:03;10.65;;;7.10;;
71484;SDS011;59300;52.074;4.758;2022-11-13T13:46:41;10.77;;;7.70;;
71484;SDS011;59300;52.074;4.758;2022-11-13T13:50:03;9.88;;;7.22;;
71484;SDS011;59300;52.074;4.758;2022-11-13T13:53:27;9.88;;;7.13;;
71484;SDS011;59300;52.074;4.758;2022-11-13T13:56:51;11.05;;;6.63;;
71484;SDS011;59300;52.074;4.758;2022-11-13T14:00:12;10.18;;;7.47;;
71484;SDS011;59300;52.074;4.758;2022-11-13T14:03:35;9.02;;;7.20;;
71484;SDS011;59300;52.074;4.758;2022-11-13T14:06:56;9.32;;;7.13;;
71484;SDS011;59300;52.074;4.758;2022-11-13T14:10:19;9.75;;;7.05;;
71484;SDS011;59300;52.074;4.758;2022-11-13T14:13:43;14.15;;;7.50;;
71484;SDS011;59300;52.074;4.758;2022-11-13T14:17:03;8.95;;;7.18;;
71484;SDS011;59300;52.074;4.758;2022-11-13T14:20:23;10.82;;;7.25;;
71484;SDS011;59300;52.074;4.758;2022-11-13T14:23:47;10.65;;;7.15;;
71484;SDS011;59300;52.074;4.758;2022-11-13T14:27:11;11.52;;;7.28;;
71484;SDS011;59300;52.074;4.758;2022-11-13T14:30:36;10.18;;;7.32;;
71484;SDS011;59300;52.074;4.758;2022-11-13T14:33:58;10.40;;;7.15;;
71484;SDS011;59300;52.074;4.758;2022-11-13T14:37:24;10.75;;;6.95;;
71484;SDS011;59300;52.074;4.758;2022-11-13T14:40:48;10.73;;;7.65;;
71484;SDS011;59300;52.074;4.758;2022-11-13T14:44:09;8.35;;;6.65;;
71484;SDS011;59300;52.074;4.758;2022-11-13T14:47:30;10.45;;;7.47;;
71484;SDS011;59300;52.074;4.758;2022-11-13T14:51:00;11.00;;;7.18;;
71484;SDS011;59300;52.074;4.758;2022-11-13T14:54:32;9.32;;;6.68;;
71484;SDS011;59300;52.074;4.758;2022-11-13T14:58:29;13.23;;;8.15;;
71484;SDS011;59300;52.074;4.758;2022-11-13T15:01:54;8.80;;;6.18;;
71484;SDS011;59300;52.074;4.758;2022-11-13T15:05:17;9.37;;;6.97;;
71484;SDS011;59300;52.074;4.758;2022-11-13T15:08:38;11.27;;;7.20;;
71484;SDS011;59300;52.074;4.758;2022-11-13T15:11:58;12.52;;;7.13;;
71484;SDS011;59300;52.074;4.758;2022-11-13T15:15:26;9.05;;;7.25;;
71484;SDS011;59300;52.074;4.758;2022-11-13T15:18:51;10.82;;;7.20;;
71484;SDS011;59300;52.074;4.758;2022-11-13T15:22:21;12.23;;;8.85;;
71484;SDS011;59300;52.074;4.758;2022-11-13T15:25:46;10.48;;;7.82;;
71484;SDS011;59300;52.074;4.758;2022-11-13T15:29:07;13.93;;;8.68;;
71484;SDS011;59300;52.074;4.758;2022-11-13T15:32:27;11.20;;;7.88;;
71484;SDS011;59300;52.074;4.758;2022-11-13T15:35:48;12.35;;;8.27;;
71484;SDS011;59300;52.074;4.758;2022-11-13T15:39:08;11.35;;;8.13;;
71484;SDS011;59300;52.074;4.758;2022-11-13T15:42:39;11.85;;;8.38;;
71484;SDS011;59300;52.074;4.758;2022-11-13T15:46:00;13.98;;;8.95;;
71484;SDS011;59300;52.074;4.758;2022-11-13T15:49:20;13.45;;;9.43;;
71484;SDS011;59300;52.074;4.758;2022-11-13T15:52:41;14.25;;;9.13;;
71484;SDS011;59300;52.074;4.758;2022-11-13T15:56:04;19.80;;;10.30;;
71484;SDS011;59300;52.074;4.758;2022-11-13T15:59:24;18.20;;;11.18;;
71484;SDS011;59300;52.074;4.758;2022-11-13T16:02:44;14.00;;;10.15;;
71484;SDS011;59300;52.074;4.758;2022-11-13T16:06:07;19.00;;;10.95;;
71484;SDS011;59300;52.074;4.758;2022-11-13T16:09:33;16.35;;;10.95;;
71484;SDS011;59300;52.074;4.758;2022-11-13T16:12:53;19.20;;;13.25;;
71484;SDS011;59300;52.074;4.758;2022-11-13T16:16:23;14.52;;;11.68;;
71484;SDS011;59300;52.074;4.758;2022-11-13T16:19:46;16.35;;;11.57;;
71484;SDS011;59300;52.074;4.758;2022-11-13T16:23:09;16.67;;;11.38;;
71484;SDS011;59300;52.074;4.758;2022-11-13T16:26:35;20.73;;;12.43;;
71484;SDS011;59300;52.074;4.758;2022-11-13T16:29:55;21.83;;;13.07;;
71484;SDS011;59300;52.074;4.758;2022-11-13T16:33:15;23.08;;;12.85;;
71484;SDS011;59300;52.074;4.758;2022-11-13T16:36:35;28.85;;;13.88;;
71484;SDS011;59300;52.074;4.758;2022-11-13T16:39:55;25.05;;;14.48;;
71484;SDS011;59300;52.074;4.758;2022-11-13T16:43:15;24.05;;;14.25;;
71484;SDS011;59300;52.074;4.758;2022-11-13T16:46:36;26.75;;;15.48;;
71484;SDS011;59300;52.074;4.758;2022-11-13T16:49:59;27.30;;;14.68;;
71484;SDS011;59300;52.074;4.758;2022-11-13T16:53:19;26.73;;;15.07;;
71484;SDS011;59300;52.074;4.758;2022-11-13T16:56:39;28.15;;;17.30;;
71484;SDS011;59300;52.074;4.758;2022-11-13T16:59:59;28.45;;;17.90;;
71484;SDS011;59300;52.074;4.758;2022-11-13T17:03:19;39.47;;;23.45;;
71484;SDS011;59300;52.074;4.758;2022-11-13T17:06:39;42.03;;;27.25;;
71484;SDS011;59300;52.074;4.758;2022-11-13T17:09:59;43.55;;;26.08;;
71484;SDS011;59300;52.074;4.758;2022-11-13T17:13:39;39.92;;;24.85;;
71484;SDS011;59300;52.074;4.758;2022-11-13T17:16:59;39.90;;;24.23;;
71484;SDS011;59300;52.074;4.758;2022-11-13T17:20:20;44.63;;;26.40;;
71484;SDS011;59300;52.074;4.758;2022-11-13T17:23:40;41.65;;;24.80;;
71484;SDS011;59300;52.074;4.758;2022-11-13T17:27:00;61.95;;;34.42;;
71484;SDS011;59300;52.074;4.758;2022-11-13T17:30:20;57.30;;;31.52;;
71484;SDS011;59300;52.074;4.758;2022-11-13T17:33:41;64.32;;;37.33;;
71484;SDS011;59300;52.074;4.758;2022-11-13T17:37:00;60.67;;;33.90;;
71484;SDS011;59300;52.074;4.758;2022-11-13T17:40:20;57.60;;;33.30;;
71484;SDS011;59300;52.074;4.758;2022-11-13T17:43:40;58.97;;;33.53;;
71484;SDS011;59300;52.074;4.758;2022-11-13T17:47:01;64.97;;;34.67;;
71484;SDS011;59300;52.074;4.758;2022-11-13T17:50:21;57.67;;;32.33;;
71484;SDS011;59300;52.074;4.758;2022-11-13T17:53:42;50.10;;;29.30;;
71484;SDS011;59300;52.074;4.758;2022-11-13T17:57:02;43.78;;;24.17;;
71484;SDS011;59300;52.074;4.758;2022-11-13T18:00:22;42.42;;;25.48;;
71484;SDS011;59300;52.074;4.758;2022-11-13T18:03:42;63.08;;;32.83;;
71484;SDS011;59300;52.074;4.758;2022-11-13T18:07:03;68.40;;;36.65;;
71484;SDS011;59300;52.074;4.758;2022-11-13T18:10:23;56.60;;;31.40;;
71484;SDS011;59300;52.074;4.758;2022-11-13T18:13:44;57.72;;;30.00;;
71484;SDS011;59300;52.074;4.758;2022-11-13T18:17:05;50.20;;;28.10;;
71484;SDS011;59300;52.074;4.758;2022-11-13T18:20:25;35.85;;;24.42;;
71484;SDS011;59300;52.074;4.758;2022-11-13T18:23:45;30.80;;;18.30;;
71484;SDS011;59300;52.074;4.758;2022-11-13T18:27:05;33.58;;;19.90;;
71484;SDS011;59300;52.074;4.758;2022-11-13T18:30:25;25.83;;;16.42;;
71484;SDS011;59300;52.074;4.758;2022-11-13T18:33:45;27.80;;;17.85;;
71484;SDS011;59300;52.074;4.758;2022-11-13T18:37:06;35.60;;;19.20;;
71484;SDS011;59300;52.074;4.758;2022-11-13T18:40:26;29.77;;;17.08;;
71484;SDS011;59300;52.074;4.758;2022-11-13T18:43:47;31.85;;;18.52;;
71484;SDS011;59300;52.074;4.758;2022-11-13T18:47:08;32.03;;;18.83;;
71484;SDS011;59300;52.074;4.758;2022-11-13T18:50:28;29.95;;;18.85;;
71484;SDS011;59300;52.074;4.758;2022-11-13T18:53:49;31.52;;;18.02;;
71484;SDS011;59300;52.074;4.758;2022-11-13T18:57:10;32.45;;;20.50;;
71484;SDS011;59300;52.074;4.758;2022-11-13T19:00:30;38.08;;;22.77;;
71484;SDS011;59300;52.074;4.758;2022-11-13T19:03:50;38.00;;;23.27;;
71484;SDS011;59300;52.074;4.758;2022-11-13T19:07:31;46.63;;;25.85;;
71484;SDS011;59300;52.074;4.758;2022-11-13T19:10:52;73.20;;;33.03;;
71484;SDS011;59300;52.074;4.758;2022-11-13T19:14:13;44.42;;;25.20;;
71484;SDS011;59300;52.074;4.758;2022-11-13T19:17:34;41.60;;;24.02;;
71484;SDS011;59300;52.074;4.758;2022-11-13T19:20:54;36.53;;;20.45;;
71484;SDS011;59300;52.074;4.758;2022-11-13T19:24:14;31.45;;;19.58;;
71484;SDS011;59300;52.074;4.758;2022-11-13T19:27:35;40.10;;;21.77;;
71484;SDS011;59300;52.074;4.758;2022-11-13T19:30:55;32.85;;;20.02;;
71484;SDS011;59300;52.074;4.758;2022-11-13T19:34:15;35.17;;;21.52;;
71484;SDS011;59300;52.074;4.758;2022-11-13T19:37:35;36.33;;;22.45;;
71484;SDS011;59300;52.074;4.758;2022-11-13T19:40:55;39.17;;;23.20;;
71484;SDS011;59300;52.074;4.758;2022-11-13T19:44:16;41.63;;;23.35;;
71484;SDS011;59300;52.074;4.758;2022-11-13T19:47:36;42.20;;;22.17;;
71484;SDS011;59300;52.074;4.758;2022-11-13T19:51:05;38.55;;;22.65;;
71484;SDS011;59300;52.074;4.758;2022-11-13T19:54:27;35.50;;;22.25;;
71484;SDS011;59300;52.074;4.758;2022-11-13T19:57:47;40.60;;;24.80;;
71484;SDS011;59300;52.074;4.758;2022-11-13T20:01:08;43.70;;;26.55;;
71484;SDS011;59300;52.074;4.758;2022-11-13T20:04:32;40.15;;;26.63;;
71484;SDS011;59300;52.074;4.758;2022-11-13T20:07:52;45.63;;;28.15;;
71484;SDS011;59300;52.074;4.758;2022-11-13T20:11:12;50.92;;;30.38;;
71484;SDS011;59300;52.074;4.758;2022-11-13T20:14:32;45.65;;;27.55;;
71484;SDS011;59300;52.074;4.758;2022-11-13T20:17:57;40.58;;;28.05;;
71484;SDS011;59300;52.074;4.758;2022-11-13T20:21:35;41.90;;;26.92;;
71484;SDS011;59300;52.074;4.758;2022-11-13T20:24:55;52.58;;;31.88;;
71484;SDS011;59300;52.074;4.758;2022-11-13T20:28:15;137.80;;;76.75;;
71484;SDS011;59300;52.074;4.758;2022-11-13T20:31:35;110.95;;;58.22;;
71484;SDS011;59300;52.074;4.758;2022-11-13T20:34:55;70.03;;;42.78;;
71484;SDS011;59300;52.074;4.758;2022-11-13T20:38:15;63.50;;;38.70;;
71484;SDS011;59300;52.074;4.758;2022-11-13T20:41:35;57.20;;;34.22;;
71484;SDS011;59300;52.074;4.758;2022-11-13T20:44:55;48.17;;;29.38;;
71484;SDS011;59300;52.074;4.758;2022-11-13T20:48:20;38.97;;;26.33;;
71484;SDS011;59300;52.074;4.758;2022-11-13T20:51:40;44.33;;;28.00;;
71484;SDS011;59300;52.074;4.758;2022-11-13T20:55:00;38.33;;;25.20;;
71484;SDS011;59300;52.074;4.758;2022-11-13T20:58:20;40.72;;;25.95;;
71484;SDS011;59300;52.074;4.758;2022-11-13T21:01:40;38.63;;;24.65;;
71484;SDS011;59300;52.074;4.758;2022-11-13T21:05:00;39.08;;;24.17;;